CheckWX is a tool to help pilots better visualize weather data.  It is not intended as a substitute for an official pre-flight weather briefing.

12:48:24 UTC

KOAK METAR
Metropolitan Oakland International Airport
Oakland, California, USA
Current

55 mins ago

KOAK 191153Z 00000KT 10SM CLR 13/11 A2993 RMK AO2 SLP135 70007 T01330111 10178 20128 56004
Observed
Sep-19 @ 11:53 UTC
Visibility
10 SM
Flight Rules
VFR
Cloud Levels
  • Clear skies
Temperature
13°C / 55°F
Dewpoint
11°C / 52°F
Humidity
88%
Altimeter
29.93" Hg
Pressure
1013.52 hPa
24 Hour Rain
0.07"
Previous

2 hours ago

KOAK 191053Z 00000KT 10SM CLR 14/11 A2994 RMK AO2 SLP136 T01390111
Observed
Sep-19 @ 10:53 UTC
Visibility
10 SM
Flight Rules
VFR
Cloud Levels
  • Clear skies
Temperature
14°C / 57°F
Dewpoint
11°C / 52°F
Humidity
82%
Altimeter
29.94" Hg
Pressure
1013.92 hPa
Previous

3 hours ago

KOAK 190953Z 00000KT 10SM CLR 14/11 A2994 RMK AO2 SLP137 T01440106
Observed
Sep-19 @ 09:53 UTC
Visibility
10 SM
Flight Rules
VFR
Cloud Levels
  • Clear skies
Temperature
14°C / 57°F
Dewpoint
11°C / 52°F
Humidity
82%
Altimeter
29.94" Hg
Pressure
1013.92 hPa